createdAt,value
2022-08-31T00:03:40.536Z,97.80
2022-08-31T00:08:35.292Z,97.78
2022-08-31T00:13:29.963Z,97.50
2022-08-31T00:23:29.384Z,98.58
2022-08-31T00:28:24.635Z,98.58
2022-08-31T00:38:24.891Z,97.53
2022-08-31T00:43:47.805Z,96.81
2022-08-31T00:48:57.612Z,97.35
2022-08-31T00:53:50.930Z,98.04
2022-08-31T01:09:03.319Z,98.86
2022-08-31T01:34:33.690Z,98.22
2022-08-31T01:54:44.208Z,100.00
2022-08-31T01:59:36.179Z,100.00
2022-08-31T02:04:29.182Z,99.69
2022-08-31T02:09:22.616Z,100.00
2022-08-31T02:19:22.017Z,97.54
2022-08-31T02:44:38.148Z,100.00
2022-08-31T02:54:40.512Z,99.54
2022-08-31T02:59:32.220Z,98.05
2022-08-31T03:04:24.141Z,96.94
2022-08-31T03:09:16.463Z,98.56
2022-08-31T03:14:08.205Z,100.00
2022-08-31T03:18:59.944Z,100.00
2022-08-31T03:23:51.712Z,100.00
2022-08-31T03:33:50.471Z,100.00
2022-08-31T03:38:42.864Z,100.00
2022-08-31T03:43:37.649Z,100.00
2022-08-31T03:48:29.364Z,100.00
2022-08-31T03:58:30.913Z,100.00
2022-08-31T04:03:24.768Z,100.00
2022-08-31T04:08:23.391Z,100.00
2022-08-31T04:18:21.848Z,100.00
2022-08-31T04:23:23.195Z,100.00
2022-08-31T04:28:15.594Z,100.00
2022-08-31T04:33:08.883Z,100.00
2022-08-31T04:38:01.066Z,100.00
2022-08-31T04:42:54.107Z,100.00
2022-08-31T04:47:46.717Z,100.00
2022-08-31T04:52:39.924Z,100.00
2022-08-31T04:57:39.218Z,100.00
2022-08-31T05:12:45.043Z,100.00
2022-08-31T05:22:46.630Z,100.00
2022-08-31T05:27:40.889Z,100.00
2022-08-31T05:32:34.116Z,100.00
2022-08-31T05:37:26.959Z,100.00
2022-08-31T05:42:20.400Z,100.00
2022-08-31T05:47:13.071Z,100.00
2022-08-31T05:52:08.705Z,100.00
2022-08-31T05:57:04.573Z,100.00
2022-08-31T06:01:58.531Z,100.00
2022-08-31T06:17:09.787Z,100.00
2022-08-31T06:22:03.057Z,100.00
2022-08-31T06:26:59.904Z,100.00
2022-08-31T06:31:52.239Z,100.00
2022-08-31T07:07:28.681Z,100.00
2022-08-31T07:12:22.305Z,98.20
2022-08-31T07:17:14.413Z,93.50
2022-08-31T07:22:11.422Z,93.46
2022-08-31T07:27:14.503Z,94.78
2022-08-31T07:32:12.725Z,95.93
2022-08-31T07:37:27.211Z,97.03
2022-08-31T07:42:25.307Z,97.06
2022-08-31T07:47:19.948Z,96.54
2022-08-31T07:52:21.886Z,98.97
2022-08-31T07:57:14.275Z,99.69
2022-08-31T08:02:07.375Z,94.94
2022-08-31T08:07:00.709Z,94.24
2022-08-31T08:12:01.265Z,96.62
2022-08-31T08:16:55.588Z,98.73
2022-08-31T08:21:48.340Z,99.55
2022-08-31T08:26:54.100Z,99.42
2022-08-31T14:02:37.075Z,71.97
2022-08-31T14:07:45.740Z,71.76
2022-08-31T14:12:54.724Z,73.04
2022-08-31T14:23:29.461Z,75.02
2022-08-31T14:28:36.162Z,76.20
2022-08-31T14:33:27.938Z,76.18
2022-08-31T14:38:19.855Z,76.49
2022-08-31T14:43:17.422Z,77.93
2022-08-31T14:48:10.862Z,76.57
2022-08-31T14:53:02.679Z,75.86
2022-08-31T14:58:05.031Z,78.08
2022-08-31T15:02:56.953Z,78.05
2022-08-31T15:07:51.033Z,77.98
2022-08-31T15:12:42.873Z,77.20
2022-08-31T15:17:35.938Z,76.75
2022-08-31T15:22:27.946Z,75.47
2022-08-31T15:27:23.316Z,76.27
2022-08-31T15:32:16.803Z,76.95
2022-08-31T15:37:09.367Z,76.82
2022-08-31T15:42:08.928Z,75.63
2022-08-31T15:47:19.236Z,76.21
2022-08-31T15:52:12.016Z,76.50
2022-08-31T15:57:05.998Z,78.44
2022-08-31T16:01:58.877Z,77.67
2022-08-31T16:06:52.529Z,76.71
2022-08-31T16:11:44.418Z,77.98
2022-08-31T16:16:40.995Z,78.34
2022-08-31T16:21:37.560Z,77.20
2022-08-31T17:07:56.486Z,78.94
2022-08-31T17:28:15.446Z,84.97
2022-08-31T19:11:51.414Z,99.51
2022-08-31T20:08:19.468Z,97.60
2022-08-31T22:01:09.203Z,100.00
2022-08-31T22:32:01.015Z,100.00
2022-08-31T22:42:04.066Z,100.00
2022-08-31T23:02:18.485Z,100.00
2022-08-31T23:12:18.317Z,100.00
2022-08-31T23:17:10.481Z,100.00
2022-08-31T23:22:07.465Z,100.00
2022-08-31T23:32:20.297Z,100.00
2022-08-31T23:47:31.208Z,100.00
2022-08-31T23:52:26.992Z,100.00
